createdAt,value
2023-05-25T00:08:40.425Z,12.90
2023-05-25T00:18:43.232Z,11.53
2023-05-25T00:28:45.427Z,10.70
2023-05-25T00:38:47.845Z,15.13
2023-05-25T00:48:52.569Z,14.67
2023-05-25T00:58:56.979Z,12.33
2023-05-25T01:09:02.036Z,12.70
2023-05-25T01:19:04.721Z,15.47
2023-05-25T01:29:08.720Z,14.67
2023-05-25T01:39:11.241Z,8.93
2023-05-25T01:49:19.864Z,10.00
2023-05-25T01:59:22.116Z,13.20
2023-05-25T02:09:27.060Z,13.97
2023-05-25T02:19:29.586Z,11.07
2023-05-25T02:29:32.200Z,12.53
2023-05-25T02:39:36.043Z,10.47
2023-05-25T02:49:38.656Z,14.27
2023-05-25T02:59:42.030Z,8.70
2023-05-25T03:09:44.273Z,18.57
2023-05-25T03:19:46.932Z,11.63
2023-05-25T03:29:50.649Z,16.20
2023-05-25T03:39:52.945Z,15.03
2023-05-25T03:49:55.424Z,11.90
2023-05-25T03:59:57.708Z,11.47
2023-05-25T04:10:00.160Z,13.07
2023-05-25T04:20:03.753Z,15.83
2023-05-25T04:30:06.754Z,24.23
2023-05-25T04:40:38.048Z,13.37
2023-05-25T04:50:40.421Z,11.97
2023-05-25T05:00:44.295Z,12.47
2023-05-25T05:10:46.776Z,17.70
2023-05-25T05:20:49.156Z,13.67
2023-05-25T05:30:53.650Z,14.63
2023-05-25T05:40:56.126Z,18.60
2023-05-25T05:50:58.849Z,17.00
2023-05-25T06:01:02.189Z,14.60
2023-05-25T06:11:04.457Z,19.33
2023-05-25T06:21:06.708Z,15.73
2023-05-25T06:31:08.924Z,14.10
2023-05-25T06:41:14.962Z,15.80
2023-05-25T06:51:18.808Z,15.37
2023-05-25T07:01:21.267Z,15.73
2023-05-25T07:11:23.600Z,12.67
2023-05-25T07:21:25.770Z,10.03
2023-05-25T07:31:27.970Z,9.87
2023-05-25T07:41:30.208Z,11.40
2023-05-25T07:51:32.862Z,8.77
2023-05-25T08:01:36.062Z,12.10
2023-05-25T08:11:39.965Z,16.10
2023-05-25T08:21:42.355Z,10.20
2023-05-25T08:31:49.813Z,12.37
2023-05-25T08:41:52.170Z,15.70
2023-05-25T08:51:55.503Z,13.50
2023-05-25T09:02:22.860Z,11.40
2023-05-25T09:12:25.711Z,8.63
2023-05-25T09:22:28.252Z,8.90
2023-05-25T09:32:31.129Z,10.57
2023-05-25T09:42:37.409Z,9.43
2023-05-25T09:52:39.553Z,9.53
2023-05-25T10:02:41.711Z,12.63
2023-05-25T10:12:44.783Z,9.47
2023-05-25T10:23:05.731Z,14.10
2023-05-25T10:33:08.112Z,10.67
2023-05-25T10:43:10.507Z,9.00
2023-05-25T10:53:13.504Z,9.13
2023-05-25T11:03:15.714Z,8.10
2023-05-25T11:13:21.462Z,9.13
2023-05-25T11:23:24.053Z,11.20
2023-05-25T11:33:26.220Z,8.23
2023-05-25T11:43:29.600Z,8.53
2023-05-25T11:53:32.566Z,11.60
2023-05-25T12:03:36.564Z,12.40
2023-05-25T12:13:41.111Z,10.50
2023-05-25T12:23:43.434Z,13.70
2023-05-25T12:33:45.958Z,10.67
2023-05-25T12:43:49.340Z,8.43
2023-05-25T12:53:51.920Z,8.23
2023-05-25T13:03:54.186Z,8.85
2023-05-25T13:13:56.818Z,11.93
2023-05-25T13:23:59.017Z,8.60
2023-05-25T13:34:01.176Z,7.87
2023-05-25T13:44:03.714Z,6.93
2023-05-25T13:54:06.126Z,8.33
2023-05-25T14:04:10.036Z,11.33
2023-05-25T14:14:27.129Z,7.07
2023-05-25T14:24:33.335Z,9.80
2023-05-25T14:34:35.716Z,7.55
2023-05-25T14:44:37.941Z,7.55
2023-05-25T14:54:44.783Z,8.60
2023-05-25T15:04:47.723Z,5.45
2023-05-25T15:14:49.968Z,8.40
2023-05-25T15:24:52.086Z,6.75
2023-05-25T15:34:54.210Z,9.90
2023-05-25T15:44:56.616Z,7.50
2023-05-25T15:54:58.808Z,11.10
2023-05-25T16:05:00.985Z,6.75
2023-05-25T16:15:03.146Z,6.35
2023-05-25T16:25:05.694Z,9.23
2023-05-25T16:35:08.185Z,7.63
2023-05-25T16:45:10.739Z,7.43
2023-05-25T16:55:14.468Z,8.70
2023-05-25T17:05:16.712Z,11.20
2023-05-25T17:15:18.997Z,9.48
2023-05-25T17:25:21.580Z,10.13
2023-05-25T17:35:23.762Z,10.20
2023-05-25T17:45:26.109Z,8.77
2023-05-25T17:55:28.467Z,9.02
2023-05-25T18:05:30.646Z,8.32
2023-05-25T18:15:32.832Z,6.33
2023-05-25T18:25:34.951Z,8.00
2023-05-25T18:35:37.908Z,7.50
2023-05-25T18:45:40.056Z,10.10
2023-05-25T18:55:42.415Z,13.82
2023-05-25T19:05:44.781Z,8.17
2023-05-25T19:15:47.275Z,10.50
2023-05-25T19:25:49.579Z,9.30
2023-05-25T19:35:51.796Z,7.63
2023-05-25T19:45:55.274Z,6.60
2023-05-25T19:55:57.579Z,9.13
2023-05-25T20:05:59.681Z,11.57
2023-05-25T20:16:01.816Z,11.43
2023-05-25T20:26:04.005Z,9.13
2023-05-25T20:36:06.226Z,7.93
2023-05-25T20:46:08.805Z,9.37
2023-05-25T20:56:11.064Z,10.30
2023-05-25T21:06:13.210Z,10.67
2023-05-25T21:16:15.398Z,21.17
2023-05-25T21:26:17.592Z,15.53
2023-05-25T21:36:20.324Z,16.87
2023-05-25T21:46:22.426Z,16.80
2023-05-25T21:56:24.541Z,20.70
2023-05-25T22:06:26.645Z,17.83
2023-05-25T22:16:28.933Z,22.20
2023-05-25T22:26:31.076Z,19.63
2023-05-25T22:36:33.204Z,17.93
2023-05-25T22:46:35.829Z,20.03
2023-05-25T22:56:37.946Z,15.93
2023-05-25T23:06:40.043Z,19.87
2023-05-25T23:16:42.212Z,18.57
2023-05-25T23:26:44.329Z,23.73
2023-05-25T23:36:46.441Z,18.87
2023-05-25T23:46:48.524Z,20.37
2023-05-25T23:56:51.538Z,19.50
